Avon, Utah
Current Conditions -  °F | °C
As of 5:35 PM on Friday 31 Oct 2014 (Local Time) from KBMC Reporting Station
Clear Clear  
Wind Chill: 68°   Ceiling: Unl
Heat Index: 68°   Visibility: 10mi
Dew Point: 27°   Wind: 3mph
Humidity: 22%   Direction: 90°E
Pressure: 29.86"   Gusts: NA
Location:  41.5397°N, 111.856°W
Report Text: KBMC 312335Z AUTO 09003KT 10SM CLR 20/M03 A2986 RMK AO1 T02001026
Loading
Personal Weather Stations






























Interactive Weather Map
Tropical Storm Tracking
New forecast layout! Learn more

10-Day Weather Forecast

Advertisements
Track Severe Weather on mobile